createdAt,value
2024-02-19T00:00:52.742Z,15.57
2024-02-19T00:05:18.337Z,15.30
2024-02-19T00:09:46.110Z,14.87
2024-02-19T00:14:11.803Z,13.73
2024-02-19T00:18:37.236Z,13.90
2024-02-19T00:23:05.936Z,14.53
2024-02-19T00:27:31.404Z,12.83
2024-02-19T00:31:57.035Z,12.40
2024-02-19T00:36:28.188Z,13.00
2024-02-19T00:40:59.655Z,12.77
2024-02-19T00:45:32.533Z,13.63
2024-02-19T00:49:56.878Z,14.20
2024-02-19T00:54:21.367Z,14.57
2024-02-19T00:58:46.910Z,11.07
2024-02-19T01:03:14.013Z,10.97
2024-02-19T01:07:37.282Z,10.10
2024-02-19T01:12:05.695Z,13.17
2024-02-19T01:16:33.602Z,15.13
2024-02-19T01:20:59.476Z,12.43
2024-02-19T01:25:27.181Z,12.53
2024-02-19T01:30:02.542Z,14.60
2024-02-19T01:34:29.880Z,14.83
2024-02-19T01:38:55.411Z,13.17
2024-02-19T01:43:20.997Z,14.83
2024-02-19T01:47:45.115Z,10.87
2024-02-19T01:52:13.209Z,11.37
2024-02-19T01:56:40.116Z,7.60
2024-02-19T02:01:09.312Z,7.00
2024-02-19T02:05:40.386Z,6.17
2024-02-19T02:10:09.001Z,5.07
2024-02-19T02:14:33.901Z,4.27
2024-02-19T02:18:58.432Z,4.70
2024-02-19T02:23:25.476Z,6.33
2024-02-19T02:27:59.874Z,6.20
2024-02-19T02:32:38.149Z,7.47
2024-02-19T02:37:09.304Z,7.80
2024-02-19T02:41:38.492Z,6.83
2024-02-19T02:46:01.303Z,6.77
2024-02-19T02:50:26.401Z,6.37
2024-02-19T02:55:00.264Z,7.20
2024-02-19T02:59:26.689Z,9.00
2024-02-19T03:03:55.533Z,7.67
2024-02-19T03:08:18.087Z,6.80
2024-02-19T03:12:48.108Z,7.73
2024-02-19T03:17:11.710Z,8.00
2024-02-19T03:21:39.117Z,6.57
2024-02-19T03:26:40.980Z,4.57
2024-02-19T03:30:54.385Z,4.30
2024-02-19T03:35:26.635Z,3.87
2024-02-19T03:40:00.294Z,6.60
2024-02-19T03:44:28.268Z,7.53
2024-02-19T03:48:55.979Z,7.00
2024-02-19T03:58:00.451Z,4.87
2024-02-19T04:02:30.188Z,5.97
2024-02-19T04:07:01.090Z,5.00
2024-02-19T04:11:30.870Z,4.93
2024-02-19T04:15:56.388Z,4.03
2024-02-19T04:20:21.957Z,4.40
2024-02-19T04:24:52.305Z,6.47
2024-02-19T04:29:32.801Z,5.53
2024-02-19T04:33:55.839Z,6.83
2024-02-19T04:38:24.645Z,8.03
2024-02-19T04:47:33.342Z,5.97
2024-02-19T04:51:56.474Z,6.50
2024-02-19T04:56:22.943Z,7.20
2024-02-19T05:00:49.480Z,7.88
2024-02-19T05:05:17.807Z,6.97
2024-02-19T05:09:45.168Z,8.83
2024-02-19T05:14:08.135Z,6.70
2024-02-19T05:18:34.501Z,10.00
2024-02-19T05:23:01.162Z,8.73
2024-02-19T05:27:32.785Z,6.03
2024-02-19T05:31:59.179Z,4.10
2024-02-19T05:36:25.222Z,4.03
2024-02-19T05:40:59.984Z,3.53
2024-02-19T05:45:28.833Z,2.80
2024-02-19T05:49:57.620Z,4.47
2024-02-19T05:54:30.792Z,3.90
2024-02-19T05:59:06.133Z,7.10
2024-02-19T06:03:28.777Z,5.87
2024-02-19T06:07:58.579Z,6.50
2024-02-19T06:12:29.631Z,5.13
2024-02-19T06:16:57.898Z,3.40
2024-02-19T06:21:46.347Z,5.20
2024-02-19T06:26:20.817Z,3.07
2024-02-19T06:30:47.984Z,3.73
2024-02-19T06:35:21.705Z,2.13
2024-02-19T06:39:45.106Z,2.93
2024-02-19T06:44:13.662Z,1.77
2024-02-19T06:48:50.505Z,3.13
2024-02-19T06:53:24.516Z,2.37
2024-02-19T06:57:59.416Z,1.90
2024-02-19T07:02:24.229Z,3.40
2024-02-19T07:06:50.509Z,2.00
2024-02-19T07:11:26.842Z,3.10
2024-02-19T07:16:09.992Z,1.10
2024-02-19T07:20:38.028Z,1.30
2024-02-19T07:25:21.759Z,1.77
2024-02-19T07:29:48.120Z,1.40
2024-02-19T07:34:15.189Z,1.47
2024-02-19T07:38:40.275Z,1.50
2024-02-19T07:43:11.220Z,1.10
2024-02-19T07:47:38.388Z,1.40
2024-02-19T07:52:09.428Z,2.00
2024-02-19T07:56:36.610Z,1.50
2024-02-19T08:01:04.419Z,1.53
2024-02-19T08:05:32.833Z,2.73
2024-02-19T08:09:59.793Z,2.60
2024-02-19T08:14:26.120Z,2.90
2024-02-19T08:18:53.176Z,2.87
2024-02-19T08:23:22.628Z,3.83
2024-02-19T08:27:48.325Z,3.37
2024-02-19T08:32:18.146Z,2.90
2024-02-19T08:36:52.444Z,3.80
2024-02-19T08:41:21.391Z,3.87
2024-02-19T08:45:48.226Z,3.00
2024-02-19T08:50:14.818Z,5.20
2024-02-19T08:54:43.030Z,4.57
2024-02-19T08:59:09.393Z,3.93
2024-02-19T09:03:36.872Z,5.00
2024-02-19T09:08:19.524Z,5.10
2024-02-19T09:12:57.237Z,4.63
2024-02-19T09:17:26.239Z,5.07
2024-02-19T09:22:14.308Z,5.40
2024-02-19T09:26:42.548Z,3.00
2024-02-19T09:31:11.917Z,2.87
2024-02-19T09:35:34.994Z,2.93
2024-02-19T09:40:17.849Z,3.17
2024-02-19T09:45:08.292Z,2.77
2024-02-19T09:49:33.508Z,2.70
2024-02-19T09:54:00.416Z,1.50
2024-02-19T09:58:29.119Z,2.97
2024-02-19T10:02:58.265Z,3.07
2024-02-19T10:07:25.433Z,2.53
2024-02-19T10:11:53.565Z,3.47
2024-02-19T10:16:32.993Z,4.50
2024-02-19T10:21:06.149Z,2.53
2024-02-19T10:25:32.736Z,4.20
2024-02-19T10:29:59.718Z,3.20
2024-02-19T10:34:29.696Z,3.60
2024-02-19T10:39:07.094Z,5.77
2024-02-19T10:43:32.169Z,6.00
2024-02-19T10:48:03.583Z,4.07
2024-02-19T10:52:32.986Z,4.60
2024-02-19T10:57:08.678Z,4.73
2024-02-19T11:01:50.803Z,5.43
2024-02-19T11:06:14.920Z,5.80
2024-02-19T11:10:46.128Z,4.70
2024-02-19T11:15:20.698Z,3.37
2024-02-19T11:19:48.595Z,4.17
2024-02-19T11:29:10.874Z,4.93
2024-02-19T11:33:37.567Z,4.07
2024-02-19T11:38:03.238Z,5.93
2024-02-19T11:42:31.253Z,5.43
2024-02-19T11:47:05.900Z,6.63
2024-02-19T11:51:28.976Z,4.80
2024-02-19T11:56:08.954Z,6.40
2024-02-19T12:00:41.280Z,4.70
2024-02-19T12:05:09.723Z,4.43
2024-02-19T12:09:38.199Z,3.97
2024-02-19T12:14:04.636Z,6.57
2024-02-19T12:18:41.507Z,3.83
2024-02-19T12:27:51.510Z,5.60
2024-02-19T12:37:03.814Z,4.40
2024-02-19T12:41:34.109Z,7.20
2024-02-19T12:46:07.800Z,6.57
2024-02-19T12:50:39.909Z,11.90
2024-02-19T12:55:42.055Z,9.37
2024-02-19T13:00:10.399Z,10.60
2024-02-19T13:04:40.832Z,14.83
2024-02-19T13:09:07.685Z,13.20
2024-02-19T13:13:35.229Z,10.63
2024-02-19T13:18:04.412Z,12.00
2024-02-19T13:22:32.419Z,13.53
2024-02-19T13:27:10.491Z,11.47
2024-02-19T13:31:35.724Z,14.40
2024-02-19T13:35:59.585Z,14.97
2024-02-19T13:40:28.431Z,13.03
2024-02-19T13:44:53.943Z,13.60
2024-02-19T13:49:19.573Z,12.23
2024-02-19T13:53:45.644Z,11.80
2024-02-19T13:58:10.133Z,14.37
2024-02-19T14:02:45.843Z,9.97
2024-02-19T14:07:14.019Z,11.80
2024-02-19T14:11:41.045Z,12.27
2024-02-19T14:16:06.324Z,7.13
2024-02-19T14:20:31.814Z,8.27
2024-02-19T14:24:55.976Z,9.13
2024-02-19T14:29:20.512Z,10.13
2024-02-19T14:33:45.829Z,17.07
2024-02-19T14:38:09.843Z,12.47
2024-02-19T14:42:32.799Z,8.87
2024-02-19T14:47:02.516Z,12.37
2024-02-19T14:51:31.120Z,11.03
2024-02-19T14:55:59.431Z,9.50
2024-02-19T15:00:29.508Z,9.37
2024-02-19T15:04:57.976Z,11.00
2024-02-19T15:09:23.050Z,8.30
2024-02-19T15:13:51.259Z,13.33
2024-02-19T15:18:17.717Z,15.23
2024-02-19T15:22:40.676Z,8.93
2024-02-19T15:27:07.358Z,10.00
2024-02-19T15:31:31.735Z,9.37
2024-02-19T15:35:56.339Z,7.50
2024-02-19T15:40:21.336Z,7.53
2024-02-19T15:44:45.937Z,10.07
2024-02-19T15:49:12.663Z,11.17
2024-02-19T15:53:36.653Z,8.30
2024-02-19T15:58:02.091Z,11.57
2024-02-19T16:02:36.431Z,9.13
2024-02-19T16:07:08.944Z,15.37
2024-02-19T16:11:37.699Z,10.17
2024-02-19T16:16:14.444Z,9.37
2024-02-19T16:20:38.691Z,9.37
2024-02-19T16:25:11.311Z,9.10
2024-02-19T16:29:36.662Z,11.87
2024-02-19T16:34:01.054Z,8.40
2024-02-19T16:38:28.549Z,8.63
2024-02-19T16:42:57.149Z,4.47
2024-02-19T16:47:27.838Z,4.60
2024-02-19T16:51:54.043Z,5.47
2024-02-19T16:56:20.361Z,6.07
2024-02-19T17:00:46.506Z,9.60
2024-02-19T17:05:13.033Z,8.73
2024-02-19T17:09:39.956Z,9.30
2024-02-19T17:14:14.418Z,13.20
2024-02-19T17:18:38.916Z,7.83
2024-02-19T17:23:04.343Z,9.40
2024-02-19T17:27:28.705Z,5.43
2024-02-19T17:32:00.002Z,8.93
2024-02-19T17:36:30.922Z,7.83
2024-02-19T17:40:56.946Z,8.57
2024-02-19T17:45:29.801Z,9.03
2024-02-19T17:49:57.093Z,9.03
2024-02-19T17:54:44.028Z,9.30
2024-02-19T17:59:16.846Z,11.73
2024-02-19T18:03:39.833Z,13.10
2024-02-19T18:08:10.705Z,12.63
2024-02-19T18:12:38.814Z,16.80
2024-02-19T18:17:04.173Z,17.97
2024-02-19T18:21:29.656Z,15.23
2024-02-19T18:26:05.716Z,20.37
2024-02-19T18:30:32.406Z,19.80
2024-02-19T18:34:57.693Z,20.03
2024-02-19T18:44:07.802Z,18.00
2024-02-19T18:48:34.660Z,21.57
2024-02-19T18:53:03.929Z,16.47
2024-02-19T18:57:32.260Z,18.93
2024-02-19T19:02:01.156Z,17.80
2024-02-19T19:06:28.194Z,17.17
2024-02-19T19:10:55.528Z,15.60
2024-02-19T19:15:25.661Z,13.60
2024-02-19T19:19:53.961Z,16.33
2024-02-19T19:24:25.607Z,16.20
2024-02-19T19:28:55.049Z,16.47
2024-02-19T19:33:22.285Z,16.83
2024-02-19T19:37:49.584Z,15.97
2024-02-19T19:42:20.561Z,11.30
2024-02-19T19:46:48.564Z,15.53
2024-02-19T19:51:16.028Z,12.90
2024-02-19T19:55:43.432Z,14.03
2024-02-19T20:00:13.630Z,17.07
2024-02-19T20:04:39.929Z,19.73
2024-02-19T20:09:14.589Z,18.33
2024-02-19T20:13:42.232Z,20.10
2024-02-19T20:18:09.250Z,21.67
2024-02-19T20:22:36.054Z,19.23
2024-02-19T20:27:01.935Z,19.83
2024-02-19T20:31:34.597Z,18.13
2024-02-19T20:36:00.823Z,20.33
2024-02-19T20:40:31.562Z,19.90
2024-02-19T20:44:54.434Z,22.17
2024-02-19T20:49:21.174Z,22.83
2024-02-19T20:53:50.247Z,18.37
2024-02-19T20:58:20.472Z,23.80
2024-02-19T21:02:48.529Z,18.77
2024-02-19T21:07:13.562Z,19.57
2024-02-19T21:11:41.479Z,15.10
2024-02-19T21:16:11.858Z,15.47
2024-02-19T21:20:37.710Z,17.17
2024-02-19T21:25:05.892Z,17.50
2024-02-19T21:29:34.306Z,16.73
2024-02-19T21:34:04.168Z,12.57
2024-02-19T21:38:34.180Z,12.60
2024-02-19T21:43:02.058Z,14.00
2024-02-19T21:47:29.133Z,16.07
2024-02-19T21:51:59.822Z,16.20
2024-02-19T21:56:37.555Z,14.97
2024-02-19T22:01:11.146Z,22.97
2024-02-19T22:05:40.747Z,22.07
2024-02-19T22:10:07.652Z,20.43
2024-02-19T22:14:34.260Z,23.00
2024-02-19T22:19:06.467Z,15.03
2024-02-19T22:23:34.679Z,15.07
2024-02-19T22:28:03.985Z,16.03
2024-02-19T22:32:34.652Z,16.00
2024-02-19T22:37:02.289Z,16.63
2024-02-19T22:41:29.711Z,12.60
2024-02-19T22:46:17.578Z,9.40
2024-02-19T22:50:49.944Z,9.17
2024-02-19T22:55:19.501Z,8.47
2024-02-19T22:59:54.567Z,7.33
2024-02-19T23:04:28.396Z,5.83
2024-02-19T23:08:58.687Z,8.20
2024-02-19T23:13:30.071Z,5.80
2024-02-19T23:18:07.106Z,6.67
2024-02-19T23:22:30.360Z,10.00
2024-02-19T23:27:02.070Z,7.77
2024-02-19T23:31:30.589Z,9.23
2024-02-19T23:35:57.169Z,10.40
2024-02-19T23:40:22.510Z,9.27
2024-02-19T23:44:49.428Z,7.43
2024-02-19T23:49:23.317Z,7.17
2024-02-19T23:53:51.169Z,10.43
2024-02-19T23:58:23.738Z,7.27
